sensor_id;sensor_type;location;lat;lon;timestamp;temperature;humidity
2054;DHT22;1032;52.542;13.440;2023-04-01T00:01:13;12.30;99.90
2054;DHT22;1032;52.542;13.440;2023-04-01T00:03:40;12.40;99.90
2054;DHT22;1032;52.542;13.440;2023-04-01T00:06:12;12.50;99.90
2054;DHT22;1032;52.542;13.440;2023-04-01T00:08:39;12.30;99.90
2054;DHT22;1032;52.542;13.440;2023-04-01T00:11:06;12.30;99.90
2054;DHT22;1032;52.542;13.440;2023-04-01T00:13:35;12.40;99.90
2054;DHT22;1032;52.542;13.440;2023-04-01T00:16:05;12.10;99.90
2054;DHT22;1032;52.542;13.440;2023-04-01T00:18:32;12.50;99.90
2054;DHT22;1032;52.542;13.440;2023-04-01T00:20:59;12.30;99.90
2054;DHT22;1032;52.542;13.440;2023-04-01T00:23:26;12.30;99.90
2054;DHT22;1032;52.542;13.440;2023-04-01T00:25:53;12.50;99.90
2054;DHT22;1032;52.542;13.440;2023-04-01T00:28:20;12.30;99.90
2054;DHT22;1032;52.542;13.440;2023-04-01T00:30:47;12.30;99.90
2054;DHT22;1032;52.542;13.440;2023-04-01T00:33:16;12.40;99.90
2054;DHT22;1032;52.542;13.440;2023-04-01T00:35:43;12.30;99.90
2054;DHT22;1032;52.542;13.440;2023-04-01T00:38:11;12.10;99.90
2054;DHT22;1032;52.542;13.440;2023-04-01T00:40:40;12.40;99.90
2054;DHT22;1032;52.542;13.440;2023-04-01T00:43:12;12.20;99.90
2054;DHT22;1032;52.542;13.440;2023-04-01T00:45:41;12.20;99.90
2054;DHT22;1032;52.542;13.440;2023-04-01T00:48:16;12.20;99.90
2054;DHT22;1032;52.542;13.440;2023-04-01T00:50:47;12.50;99.90
2054;DHT22;1032;52.542;13.440;2023-04-01T00:53:18;12.10;99.90
2054;DHT22;1032;52.542;13.440;2023-04-01T00:55:50;12.20;99.90
2054;DHT22;1032;52.542;13.440;2023-04-01T00:58:21;12.10;99.90
2054;DHT22;1032;52.542;13.440;2023-04-01T01:00:49;12.20;99.90
2054;DHT22;1032;52.542;13.440;2023-04-01T01:03:21;12.40;99.90
2054;DHT22;1032;52.542;13.440;2023-04-01T01:06:05;12.30;99.90
2054;DHT22;1032;52.542;13.440;2023-04-01T01:08:44;12.40;99.90
2054;DHT22;1032;52.542;13.440;2023-04-01T01:11:19;12.20;99.90
2054;DHT22;1032;52.542;13.440;2023-04-01T01:13:53;12.40;99.90
2054;DHT22;1032;52.542;13.440;2023-04-01T01:16:26;12.50;99.90
2054;DHT22;1032;52.542;13.440;2023-04-01T01:19:00;12.20;99.90
2054;DHT22;1032;52.542;13.440;2023-04-01T01:24:46;12.20;99.90
2054;DHT22;1032;52.542;13.440;2023-04-01T01:27:16;12.20;99.90
2054;DHT22;1032;52.542;13.440;2023-04-01T01:29:54;12.10;99.90
2054;DHT22;1032;52.542;13.440;2023-04-01T01:35:30;12.10;99.90
2054;DHT22;1032;52.542;13.440;2023-04-01T01:38:05;12.30;99.90
2054;DHT22;1032;52.542;13.440;2023-04-01T01:40:34;12.50;99.90
2054;DHT22;1032;52.542;13.440;2023-04-01T01:43:05;12.20;99.90
2054;DHT22;1032;52.542;13.440;2023-04-01T01:45:34;12.20;99.90
2054;DHT22;1032;52.542;13.440;2023-04-01T01:48:05;12.30;99.90
2054;DHT22;1032;52.542;13.440;2023-04-01T01:50:35;12.30;99.90
2054;DHT22;1032;52.542;13.440;2023-04-01T01:53:04;12.10;99.90
2054;DHT22;1032;52.542;13.440;2023-04-01T01:55:33;12.20;99.90
2054;DHT22;1032;52.542;13.440;2023-04-01T01:58:05;12.10;99.90
2054;DHT22;1032;52.542;13.440;2023-04-01T02:00:35;12.20;99.90
2054;DHT22;1032;52.542;13.440;2023-04-01T02:03:03;12.20;99.90
2054;DHT22;1032;52.542;13.440;2023-04-01T02:05:31;12.10;99.90
2054;DHT22;1032;52.542;13.440;2023-04-01T02:08:10;12.40;99.90
2054;DHT22;1032;52.542;13.440;2023-04-01T02:10:42;12.20;99.90
2054;DHT22;1032;52.542;13.440;2023-04-01T02:13:15;12.30;99.90
2054;DHT22;1032;52.542;13.440;2023-04-01T02:15:47;12.20;99.90
2054;DHT22;1032;52.542;13.440;2023-04-01T02:18:18;12.40;99.90
2054;DHT22;1032;52.542;13.440;2023-04-01T02:20:46;12.20;99.90
2054;DHT22;1032;52.542;13.440;2023-04-01T02:23:16;12.30;99.90
2054;DHT22;1032;52.542;13.440;2023-04-01T02:25:44;12.40;99.90
2054;DHT22;1032;52.542;13.440;2023-04-01T02:28:12;12.10;99.90
2054;DHT22;1032;52.542;13.440;2023-04-01T02:30:42;12.30;99.90
2054;DHT22;1032;52.542;13.440;2023-04-01T02:33:11;12.10;99.90
2054;DHT22;1032;52.542;13.440;2023-04-01T02:35:38;12.30;99.90
2054;DHT22;1032;52.542;13.440;2023-04-01T02:38:06;12.30;99.90
2054;DHT22;1032;52.542;13.440;2023-04-01T02:40:50;12.50;99.90
2054;DHT22;1032;52.542;13.440;2023-04-01T02:43:17;12.20;99.90
2054;DHT22;1032;52.542;13.440;2023-04-01T02:45:46;12.30;99.90
2054;DHT22;1032;52.542;13.440;2023-04-01T02:48:13;12.40;99.90
2054;DHT22;1032;52.542;13.440;2023-04-01T02:50:43;12.30;99.90
2054;DHT22;1032;52.542;13.440;2023-04-01T02:53:10;12.30;99.90
2054;DHT22;1032;52.542;13.440;2023-04-01T02:55:37;12.00;99.90
2054;DHT22;1032;52.542;13.440;2023-04-01T02:58:05;12.10;99.90
2054;DHT22;1032;52.542;13.440;2023-04-01T03:00:35;12.00;99.90
2054;DHT22;1032;52.542;13.440;2023-04-01T03:03:02;12.20;99.90
2054;DHT22;1032;52.542;13.440;2023-04-01T03:05:29;12.30;99.90
2054;DHT22;1032;52.542;13.440;2023-04-01T03:07:56;12.10;99.90
2054;DHT22;1032;52.542;13.440;2023-04-01T03:10:23;12.20;99.90
2054;DHT22;1032;52.542;13.440;2023-04-01T03:12:50;12.30;99.90
2054;DHT22;1032;52.542;13.440;2023-04-01T03:15:18;12.10;99.90
2054;DHT22;1032;52.542;13.440;2023-04-01T03:17:45;12.10;99.90
2054;DHT22;1032;52.542;13.440;2023-04-01T03:20:13;12.10;99.90
2054;DHT22;1032;52.542;13.440;2023-04-01T03:22:43;12.00;99.90
2054;DHT22;1032;52.542;13.440;2023-04-01T03:25:10;12.10;99.90
2054;DHT22;1032;52.542;13.440;2023-04-01T03:27:38;12.20;99.90
2054;DHT22;1032;52.542;13.440;2023-04-01T03:30:06;12.20;99.90
2054;DHT22;1032;52.542;13.440;2023-04-01T03:32:41;12.10;99.90
2054;DHT22;1032;52.542;13.440;2023-04-01T03:35:09;12.30;99.90
2054;DHT22;1032;52.542;13.440;2023-04-01T03:37:37;12.10;99.90
2054;DHT22;1032;52.542;13.440;2023-04-01T03:40:05;12.10;99.90
2054;DHT22;1032;52.542;13.440;2023-04-01T03:42:33;12.10;99.90
2054;DHT22;1032;52.542;13.440;2023-04-01T03:45:00;12.10;99.90
2054;DHT22;1032;52.542;13.440;2023-04-01T03:47:28;12.30;99.90
2054;DHT22;1032;52.542;13.440;2023-04-01T03:49:57;11.90;99.90
2054;DHT22;1032;52.542;13.440;2023-04-01T03:52:25;12.00;99.90
2054;DHT22;1032;52.542;13.440;2023-04-01T03:54:52;12.10;99.90
2054;DHT22;1032;52.542;13.440;2023-04-01T03:57:19;11.80;99.90
2054;DHT22;1032;52.542;13.440;2023-04-01T03:59:46;12.00;99.90
2054;DHT22;1032;52.542;13.440;2023-04-01T04:02:12;12.20;99.90
2054;DHT22;1032;52.542;13.440;2023-04-01T04:04:40;12.10;99.90
2054;DHT22;1032;52.542;13.440;2023-04-01T04:07:09;12.20;99.90
2054;DHT22;1032;52.542;13.440;2023-04-01T04:09:55;12.40;99.90
2054;DHT22;1032;52.542;13.440;2023-04-01T04:12:22;12.20;99.90
2054;DHT22;1032;52.542;13.440;2023-04-01T04:14:49;12.10;99.90
2054;DHT22;1032;52.542;13.440;2023-04-01T04:17:15;12.00;99.90
2054;DHT22;1032;52.542;13.440;2023-04-01T04:19:43;12.20;99.90
2054;DHT22;1032;52.542;13.440;2023-04-01T04:22:11;12.10;99.90
2054;DHT22;1032;52.542;13.440;2023-04-01T04:24:38;12.10;99.90
2054;DHT22;1032;52.542;13.440;2023-04-01T04:27:08;12.30;99.90
2054;DHT22;1032;52.542;13.440;2023-04-01T04:29:41;12.20;99.90
2054;DHT22;1032;52.542;13.440;2023-04-01T04:32:08;12.20;99.90
2054;DHT22;1032;52.542;13.440;2023-04-01T04:34:35;11.80;99.90
2054;DHT22;1032;52.542;13.440;2023-04-01T04:37:02;12.00;99.90
2054;DHT22;1032;52.542;13.440;2023-04-01T04:39:34;12.10;99.90
2054;DHT22;1032;52.542;13.440;2023-04-01T04:42:02;12.20;99.90
2054;DHT22;1032;52.542;13.440;2023-04-01T04:44:28;12.00;99.90
2054;DHT22;1032;52.542;13.440;2023-04-01T04:46:56;11.90;99.90
2054;DHT22;1032;52.542;13.440;2023-04-01T04:49:22;12.30;99.90
2054;DHT22;1032;52.542;13.440;2023-04-01T04:51:50;12.00;99.90
2054;DHT22;1032;52.542;13.440;2023-04-01T04:54:20;12.10;99.90
2054;DHT22;1032;52.542;13.440;2023-04-01T04:56:53;12.10;99.90
2054;DHT22;1032;52.542;13.440;2023-04-01T04:59:21;12.10;99.90
2054;DHT22;1032;52.542;13.440;2023-04-01T05:01:59;12.00;99.90
2054;DHT22;1032;52.542;13.440;2023-04-01T05:04:27;12.10;99.90
2054;DHT22;1032;52.542;13.440;2023-04-01T05:06:53;12.40;99.90
2054;DHT22;1032;52.542;13.440;2023-04-01T05:09:20;11.30;99.90
2054;DHT22;1032;52.542;13.440;2023-04-01T05:11:47;12.10;99.90
2054;DHT22;1032;52.542;13.440;2023-04-01T05:14:15;12.10;99.90
2054;DHT22;1032;52.542;13.440;2023-04-01T05:16:50;11.90;99.90
2054;DHT22;1032;52.542;13.440;2023-04-01T05:19:17;12.10;99.90
2054;DHT22;1032;52.542;13.440;2023-04-01T05:21:43;11.60;99.90
2054;DHT22;1032;52.542;13.440;2023-04-01T05:24:10;12.30;99.90
2054;DHT22;1032;52.542;13.440;2023-04-01T05:26:38;12.20;99.90
2054;DHT22;1032;52.542;13.440;2023-04-01T05:29:05;11.50;99.90
2054;DHT22;1032;52.542;13.440;2023-04-01T05:31:33;12.10;99.90
2054;DHT22;1032;52.542;13.440;2023-04-01T05:34:01;12.00;99.90
2054;DHT22;1032;52.542;13.440;2023-04-01T05:36:28;12.40;99.90
2054;DHT22;1032;52.542;13.440;2023-04-01T05:38:55;12.00;99.90
2054;DHT22;1032;52.542;13.440;2023-04-01T05:41:24;11.90;99.90
2054;DHT22;1032;52.542;13.440;2023-04-01T05:43:51;12.30;99.90
2054;DHT22;1032;52.542;13.440;2023-04-01T05:46:37;11.50;99.90
2054;DHT22;1032;52.542;13.440;2023-04-01T05:49:21;12.10;99.90
2054;DHT22;1032;52.542;13.440;2023-04-01T05:51:49;12.20;99.90
2054;DHT22;1032;52.542;13.440;2023-04-01T05:54:16;12.10;99.90
2054;DHT22;1032;52.542;13.440;2023-04-01T05:56:44;11.60;99.90
2054;DHT22;1032;52.542;13.440;2023-04-01T05:59:11;12.20;99.90
2054;DHT22;1032;52.542;13.440;2023-04-01T06:01:40;11.90;99.90
2054;DHT22;1032;52.542;13.440;2023-04-01T06:04:09;12.10;99.90
2054;DHT22;1032;52.542;13.440;2023-04-01T06:06:36;12.20;99.90
2054;DHT22;1032;52.542;13.440;2023-04-01T06:09:13;12.30;99.90
2054;DHT22;1032;52.542;13.440;2023-04-01T06:11:56;12.20;99.90
2054;DHT22;1032;52.542;13.440;2023-04-01T06:14:37;12.00;99.90
2054;DHT22;1032;52.542;13.440;2023-04-01T06:17:18;12.20;99.90
2054;DHT22;1032;52.542;13.440;2023-04-01T06:19:50;12.10;99.90
2054;DHT22;1032;52.542;13.440;2023-04-01T06:22:34;12.10;99.90
2054;DHT22;1032;52.542;13.440;2023-04-01T06:28:31;12.40;99.90
2054;DHT22;1032;52.542;13.440;2023-04-01T06:31:10;12.40;99.90
2054;DHT22;1032;52.542;13.440;2023-04-01T06:33:55;11.70;99.90
2054;DHT22;1032;52.542;13.440;2023-04-01T06:36:41;12.80;99.90
2054;DHT22;1032;52.542;13.440;2023-04-01T06:39:21;12.40;99.90
2054;DHT22;1032;52.542;13.440;2023-04-01T06:42:15;12.40;99.90
2054;DHT22;1032;52.542;13.440;2023-04-01T06:44:56;12.30;99.90
2054;DHT22;1032;52.542;13.440;2023-04-01T06:47:54;12.20;99.90
2054;DHT22;1032;52.542;13.440;2023-04-01T06:50:48;12.50;99.90
2054;DHT22;1032;52.542;13.440;2023-04-01T06:53:41;12.50;99.90
2054;DHT22;1032;52.542;13.440;2023-04-01T06:56:32;12.10;99.90
2054;DHT22;1032;52.542;13.440;2023-04-01T06:59:10;12.30;99.90
2054;DHT22;1032;52.542;13.440;2023-04-01T07:01:41;12.50;99.90
2054;DHT22;1032;52.542;13.440;2023-04-01T07:04:13;12.30;99.90
2054;DHT22;1032;52.542;13.440;2023-04-01T07:06:46;12.50;99.90
2054;DHT22;1032;52.542;13.440;2023-04-01T07:09:18;12.30;99.90
2054;DHT22;1032;52.542;13.440;2023-04-01T07:12:10;12.60;99.90
2054;DHT22;1032;52.542;13.440;2023-04-01T07:15:04;12.30;99.90
2054;DHT22;1032;52.542;13.440;2023-04-01T07:17:36;12.80;99.90
2054;DHT22;1032;52.542;13.440;2023-04-01T07:20:13;12.80;99.90
2054;DHT22;1032;52.542;13.440;2023-04-01T07:22:44;12.50;99.90
2054;DHT22;1032;52.542;13.440;2023-04-01T07:25:36;12.40;99.90
2054;DHT22;1032;52.542;13.440;2023-04-01T07:28:23;12.60;99.90
2054;DHT22;1032;52.542;13.440;2023-04-01T07:31:05;12.00;99.90
2054;DHT22;1032;52.542;13.440;2023-04-01T07:33:41;12.80;99.90
2054;DHT22;1032;52.542;13.440;2023-04-01T07:36:14;12.20;99.90
2054;DHT22;1032;52.542;13.440;2023-04-01T07:38:56;12.70;99.90
2054;DHT22;1032;52.542;13.440;2023-04-01T07:41:51;12.50;99.90
2054;DHT22;1032;52.542;13.440;2023-04-01T07:44:28;12.90;99.90
2054;DHT22;1032;52.542;13.440;2023-04-01T07:47:09;12.80;99.90
2054;DHT22;1032;52.542;13.440;2023-04-01T07:49:49;12.90;99.90
2054;DHT22;1032;52.542;13.440;2023-04-01T07:52:23;12.90;99.90
2054;DHT22;1032;52.542;13.440;2023-04-01T07:55:06;12.50;99.90
2054;DHT22;1032;52.542;13.440;2023-04-01T07:57:38;12.90;99.90
2054;DHT22;1032;52.542;13.440;2023-04-01T08:00:13;12.60;99.90
2054;DHT22;1032;52.542;13.440;2023-04-01T08:03:10;12.80;99.90
2054;DHT22;1032;52.542;13.440;2023-04-01T08:05:49;12.60;99.90
2054;DHT22;1032;52.542;13.440;2023-04-01T08:08:27;12.70;99.90
2054;DHT22;1032;52.542;13.440;2023-04-01T08:11:23;12.70;99.90
2054;DHT22;1032;52.542;13.440;2023-04-01T08:14:17;12.60;99.90
2054;DHT22;1032;52.542;13.440;2023-04-01T08:17:08;12.70;99.90
2054;DHT22;1032;52.542;13.440;2023-04-01T08:19:54;12.20;99.90
2054;DHT22;1032;52.542;13.440;2023-04-01T08:22:27;12.10;99.90
2054;DHT22;1032;52.542;13.440;2023-04-01T08:25:01;12.10;99.90
2054;DHT22;1032;52.542;13.440;2023-04-01T08:27:36;12.20;99.90
2054;DHT22;1032;52.542;13.440;2023-04-01T08:30:16;12.10;99.90
2054;DHT22;1032;52.542;13.440;2023-04-01T08:32:48;12.10;99.90
2054;DHT22;1032;52.542;13.440;2023-04-01T08:35:24;12.20;99.90
2054;DHT22;1032;52.542;13.440;2023-04-01T08:37:55;12.20;99.90
2054;DHT22;1032;52.542;13.440;2023-04-01T08:40:59;12.00;99.90
2054;DHT22;1032;52.542;13.440;2023-04-01T08:44:04;12.00;99.90
2054;DHT22;1032;52.542;13.440;2023-04-01T08:46:54;11.90;99.90
2054;DHT22;1032;52.542;13.440;2023-04-01T08:49:48;11.70;99.90
2054;DHT22;1032;52.542;13.440;2023-04-01T08:52:37;11.80;99.90
2054;DHT22;1032;52.542;13.440;2023-04-01T08:55:29;11.50;99.90
2054;DHT22;1032;52.542;13.440;2023-04-01T08:58:31;11.90;99.90
2054;DHT22;1032;52.542;13.440;2023-04-01T09:01:21;12.20;99.90
2054;DHT22;1032;52.542;13.440;2023-04-01T09:04:14;12.40;99.90
2054;DHT22;1032;52.542;13.440;2023-04-01T09:06:57;12.10;99.90
2054;DHT22;1032;52.542;13.440;2023-04-01T09:12:33;11.80;99.90
2054;DHT22;1032;52.542;13.440;2023-04-01T09:15:34;12.00;99.90
2054;DHT22;1032;52.542;13.440;2023-04-01T09:18:25;12.10;99.90
2054;DHT22;1032;52.542;13.440;2023-04-01T09:24:09;11.90;99.90
2054;DHT22;1032;52.542;13.440;2023-04-01T09:26:50;12.00;99.90
2054;DHT22;1032;52.542;13.440;2023-04-01T09:29:34;12.20;99.90
2054;DHT22;1032;52.542;13.440;2023-04-01T09:32:28;11.90;99.90
2054;DHT22;1032;52.542;13.440;2023-04-01T09:35:22;11.90;99.90
2054;DHT22;1032;52.542;13.440;2023-04-01T09:38:03;11.90;99.90
2054;DHT22;1032;52.542;13.440;2023-04-01T09:40:39;11.80;99.90
2054;DHT22;1032;52.542;13.440;2023-04-01T09:43:23;11.90;99.90
2054;DHT22;1032;52.542;13.440;2023-04-01T09:49:05;11.90;99.90
2054;DHT22;1032;52.542;13.440;2023-04-01T09:51:45;12.00;99.90
2054;DHT22;1032;52.542;13.440;2023-04-01T09:54:24;12.40;99.90
2054;DHT22;1032;52.542;13.440;2023-04-01T10:00:47;12.20;99.90
2054;DHT22;1032;52.542;13.440;2023-04-01T10:03:48;12.00;99.90
2054;DHT22;1032;52.542;13.440;2023-04-01T10:09:42;12.20;99.90
2054;DHT22;1032;52.542;13.440;2023-04-01T10:12:29;12.00;99.90
2054;DHT22;1032;52.542;13.440;2023-04-01T10:15:19;11.90;99.90
2054;DHT22;1032;52.542;13.440;2023-04-01T10:18:19;12.00;99.90
2054;DHT22;1032;52.542;13.440;2023-04-01T10:21:04;12.10;99.90
2054;DHT22;1032;52.542;13.440;2023-04-01T10:27:00;11.60;99.90
2054;DHT22;1032;52.542;13.440;2023-04-01T10:33:14;11.80;99.90
2054;DHT22;1032;52.542;13.440;2023-04-01T10:39:13;11.80;99.90
2054;DHT22;1032;52.542;13.440;2023-04-01T10:45:48;11.40;99.90
2054;DHT22;1032;52.542;13.440;2023-04-01T10:52:22;11.60;99.90
2054;DHT22;1032;52.542;13.440;2023-04-01T10:55:37;11.30;99.90
2054;DHT22;1032;52.542;13.440;2023-04-01T10:58:59;11.70;99.90
2054;DHT22;1032;52.542;13.440;2023-04-01T11:02:21;11.30;99.90
2054;DHT22;1032;52.542;13.440;2023-04-01T11:11:55;11.40;99.90
2054;DHT22;1032;52.542;13.440;2023-04-01T11:14:54;11.30;99.90
2054;DHT22;1032;52.542;13.440;2023-04-01T11:17:56;11.60;99.90
2054;DHT22;1032;52.542;13.440;2023-04-01T11:20:51;11.60;99.90
2054;DHT22;1032;52.542;13.440;2023-04-01T11:23:37;11.50;99.90
2054;DHT22;1032;52.542;13.440;2023-04-01T11:26:28;11.80;99.90
2054;DHT22;1032;52.542;13.440;2023-04-01T11:29:54;11.50;99.90
2054;DHT22;1032;52.542;13.440;2023-04-01T11:32:39;11.80;99.90
2054;DHT22;1032;52.542;13.440;2023-04-01T11:35:25;11.60;99.90
2054;DHT22;1032;52.542;13.440;2023-04-01T11:38:01;11.70;99.90
2054;DHT22;1032;52.542;13.440;2023-04-01T11:40:49;11.60;99.90
2054;DHT22;1032;52.542;13.440;2023-04-01T11:43:39;11.40;99.90
2054;DHT22;1032;52.542;13.440;2023-04-01T11:46:36;11.60;99.90
2054;DHT22;1032;52.542;13.440;2023-04-01T11:49:23;10.90;99.90
2054;DHT22;1032;52.542;13.440;2023-04-01T11:52:33;11.60;99.90
2054;DHT22;1032;52.542;13.440;2023-04-01T11:55:19;11.70;99.90
2054;DHT22;1032;52.542;13.440;2023-04-01T11:58:18;11.60;99.90
2054;DHT22;1032;52.542;13.440;2023-04-01T12:04:23;11.60;99.90
2054;DHT22;1032;52.542;13.440;2023-04-01T12:07:00;11.60;99.90
2054;DHT22;1032;52.542;13.440;2023-04-01T12:09:36;11.30;99.90
2054;DHT22;1032;52.542;13.440;2023-04-01T12:12:16;11.20;99.90
2054;DHT22;1032;52.542;13.440;2023-04-01T12:14:50;11.10;99.90
2054;DHT22;1032;52.542;13.440;2023-04-01T12:17:29;11.10;99.90
2054;DHT22;1032;52.542;13.440;2023-04-01T12:20:16;11.00;99.90
2054;DHT22;1032;52.542;13.440;2023-04-01T12:22:53;10.60;99.90
2054;DHT22;1032;52.542;13.440;2023-04-01T12:25:43;10.70;99.90
2054;DHT22;1032;52.542;13.440;2023-04-01T12:28:20;10.80;99.90
2054;DHT22;1032;52.542;13.440;2023-04-01T12:30:58;11.50;99.90
2054;DHT22;1032;52.542;13.440;2023-04-01T12:33:42;11.20;99.90
2054;DHT22;1032;52.542;13.440;2023-04-01T12:36:20;11.40;99.90
2054;DHT22;1032;52.542;13.440;2023-04-01T12:39:11;10.80;99.90
2054;DHT22;1032;52.542;13.440;2023-04-01T12:41:49;11.20;99.90
2054;DHT22;1032;52.542;13.440;2023-04-01T12:44:29;10.70;99.90
2054;DHT22;1032;52.542;13.440;2023-04-01T12:50:19;11.10;99.90
2054;DHT22;1032;52.542;13.440;2023-04-01T12:53:01;11.30;99.90
2054;DHT22;1032;52.542;13.440;2023-04-01T12:55:39;10.90;99.90
2054;DHT22;1032;52.542;13.440;2023-04-01T12:58:29;11.00;99.90
2054;DHT22;1032;52.542;13.440;2023-04-01T13:01:10;10.90;99.90
2054;DHT22;1032;52.542;13.440;2023-04-01T13:03:53;10.60;99.90
2054;DHT22;1032;52.542;13.440;2023-04-01T13:06:37;11.20;99.90
2054;DHT22;1032;52.542;13.440;2023-04-01T13:09:19;10.80;99.90
2054;DHT22;1032;52.542;13.440;2023-04-01T13:12:06;11.00;99.90
2054;DHT22;1032;52.542;13.440;2023-04-01T13:14:52;10.60;99.90
2054;DHT22;1032;52.542;13.440;2023-04-01T13:17:25;11.10;99.90
2054;DHT22;1032;52.542;13.440;2023-04-01T13:19:57;10.10;99.90
2054;DHT22;1032;52.542;13.440;2023-04-01T13:22:35;10.60;99.90
2054;DHT22;1032;52.542;13.440;2023-04-01T13:25:13;10.70;99.90
2054;DHT22;1032;52.542;13.440;2023-04-01T13:27:44;10.00;99.90
2054;DHT22;1032;52.542;13.440;2023-04-01T13:30:23;10.30;99.90
2054;DHT22;1032;52.542;13.440;2023-04-01T13:32:58;10.50;99.90
2054;DHT22;1032;52.542;13.440;2023-04-01T13:35:37;9.90;99.90
2054;DHT22;1032;52.542;13.440;2023-04-01T13:38:17;10.30;99.90
2054;DHT22;1032;52.542;13.440;2023-04-01T13:40:58;10.40;99.90
2054;DHT22;1032;52.542;13.440;2023-04-01T13:43:31;10.80;99.90
2054;DHT22;1032;52.542;13.440;2023-04-01T13:46:12;10.80;99.90
2054;DHT22;1032;52.542;13.440;2023-04-01T13:48:55;10.30;99.90
2054;DHT22;1032;52.542;13.440;2023-04-01T13:51:36;10.70;99.90
2054;DHT22;1032;52.542;13.440;2023-04-01T13:57:19;10.50;99.90
2054;DHT22;1032;52.542;13.440;2023-04-01T14:00:10;10.40;99.90
2054;DHT22;1032;52.542;13.440;2023-04-01T14:02:56;10.50;99.90
2054;DHT22;1032;52.542;13.440;2023-04-01T14:05:32;10.30;99.90
2054;DHT22;1032;52.542;13.440;2023-04-01T14:08:09;10.60;99.90
2054;DHT22;1032;52.542;13.440;2023-04-01T14:10:43;10.40;99.90
2054;DHT22;1032;52.542;13.440;2023-04-01T14:13:17;10.30;99.90
2054;DHT22;1032;52.542;13.440;2023-04-01T14:16:04;10.60;99.90
2054;DHT22;1032;52.542;13.440;2023-04-01T14:18:42;10.70;99.90
2054;DHT22;1032;52.542;13.440;2023-04-01T14:21:20;10.50;99.90
2054;DHT22;1032;52.542;13.440;2023-04-01T14:23:59;10.00;99.90
2054;DHT22;1032;52.542;13.440;2023-04-01T14:26:57;10.30;99.90
2054;DHT22;1032;52.542;13.440;2023-04-01T14:29:36;10.20;99.90
2054;DHT22;1032;52.542;13.440;2023-04-01T14:32:11;10.60;99.90
2054;DHT22;1032;52.542;13.440;2023-04-01T14:34:53;10.30;99.90
2054;DHT22;1032;52.542;13.440;2023-04-01T14:40:27;10.30;99.90
2054;DHT22;1032;52.542;13.440;2023-04-01T14:43:13;9.90;99.90
2054;DHT22;1032;52.542;13.440;2023-04-01T14:45:55;10.10;99.90
2054;DHT22;1032;52.542;13.440;2023-04-01T14:48:31;10.40;99.90
2054;DHT22;1032;52.542;13.440;2023-04-01T14:51:04;10.10;99.90
2054;DHT22;1032;52.542;13.440;2023-04-01T14:53:37;10.00;99.90
2054;DHT22;1032;52.542;13.440;2023-04-01T14:56:07;10.10;99.90
2054;DHT22;1032;52.542;13.440;2023-04-01T14:58:43;9.50;99.90
2054;DHT22;1032;52.542;13.440;2023-04-01T15:01:25;10.30;99.90
2054;DHT22;1032;52.542;13.440;2023-04-01T15:04:02;9.90;99.90
2054;DHT22;1032;52.542;13.440;2023-04-01T15:06:40;10.00;99.90
2054;DHT22;1032;52.542;13.440;2023-04-01T15:09:17;10.50;99.90
2054;DHT22;1032;52.542;13.440;2023-04-01T15:11:59;9.90;99.90
2054;DHT22;1032;52.542;13.440;2023-04-01T15:14:50;10.20;99.90
2054;DHT22;1032;52.542;13.440;2023-04-01T15:17:35;9.90;99.90
2054;DHT22;1032;52.542;13.440;2023-04-01T15:20:52;9.70;99.90
2054;DHT22;1032;52.542;13.440;2023-04-01T15:23:31;9.70;99.90
2054;DHT22;1032;52.542;13.440;2023-04-01T15:26:14;9.40;99.90
2054;DHT22;1032;52.542;13.440;2023-04-01T15:28:53;9.90;99.90
2054;DHT22;1032;52.542;13.440;2023-04-01T15:31:27;9.60;99.90
2054;DHT22;1032;52.542;13.440;2023-04-01T15:34:09;9.30;99.90
2054;DHT22;1032;52.542;13.440;2023-04-01T15:36:44;9.40;99.90
2054;DHT22;1032;52.542;13.440;2023-04-01T15:39:14;9.70;99.90
2054;DHT22;1032;52.542;13.440;2023-04-01T15:41:50;9.60;99.90
2054;DHT22;1032;52.542;13.440;2023-04-01T15:44:37;9.30;99.90
2054;DHT22;1032;52.542;13.440;2023-04-01T15:47:30;9.60;99.90
2054;DHT22;1032;52.542;13.440;2023-04-01T15:50:18;9.30;99.90
2054;DHT22;1032;52.542;13.440;2023-04-01T15:52:52;9.40;99.90
2054;DHT22;1032;52.542;13.440;2023-04-01T15:55:27;9.10;99.90
2054;DHT22;1032;52.542;13.440;2023-04-01T15:58:11;9.60;99.90
2054;DHT22;1032;52.542;13.440;2023-04-01T16:00:44;9.30;99.90
2054;DHT22;1032;52.542;13.440;2023-04-01T16:03:19;9.10;99.90
2054;DHT22;1032;52.542;13.440;2023-04-01T16:06:01;9.60;99.90
2054;DHT22;1032;52.542;13.440;2023-04-01T16:09:06;9.00;99.90
2054;DHT22;1032;52.542;13.440;2023-04-01T16:11:43;9.30;99.90
2054;DHT22;1032;52.542;13.440;2023-04-01T16:14:28;8.60;99.90
2054;DHT22;1032;52.542;13.440;2023-04-01T16:17:11;9.30;99.90
2054;DHT22;1032;52.542;13.440;2023-04-01T16:19:51;9.00;99.90
2054;DHT22;1032;52.542;13.440;2023-04-01T16:22:23;9.30;99.90
2054;DHT22;1032;52.542;13.440;2023-04-01T16:24:54;9.20;99.90
2054;DHT22;1032;52.542;13.440;2023-04-01T16:27:27;9.10;99.90
2054;DHT22;1032;52.542;13.440;2023-04-01T16:30:00;8.80;99.90
2054;DHT22;1032;52.542;13.440;2023-04-01T16:32:36;8.90;99.90
2054;DHT22;1032;52.542;13.440;2023-04-01T16:35:28;8.70;99.90
2054;DHT22;1032;52.542;13.440;2023-04-01T16:38:05;8.80;99.90
2054;DHT22;1032;52.542;13.440;2023-04-01T16:40:42;8.80;99.90
2054;DHT22;1032;52.542;13.440;2023-04-01T16:43:16;8.70;99.90
2054;DHT22;1032;52.542;13.440;2023-04-01T16:45:53;8.60;99.90
2054;DHT22;1032;52.542;13.440;2023-04-01T16:48:22;8.40;99.90
2054;DHT22;1032;52.542;13.440;2023-04-01T16:50:58;8.10;99.90
2054;DHT22;1032;52.542;13.440;2023-04-01T16:53:36;8.40;99.90
2054;DHT22;1032;52.542;13.440;2023-04-01T16:56:11;8.30;99.90
2054;DHT22;1032;52.542;13.440;2023-04-01T16:58:42;8.40;99.90
2054;DHT22;1032;52.542;13.440;2023-04-01T17:01:13;8.50;99.90
2054;DHT22;1032;52.542;13.440;2023-04-01T17:03:44;8.40;99.90
2054;DHT22;1032;52.542;13.440;2023-04-01T17:06:25;8.20;99.90
2054;DHT22;1032;52.542;13.440;2023-04-01T17:09:19;7.90;99.90
2054;DHT22;1032;52.542;13.440;2023-04-01T17:11:56;8.10;99.90
2054;DHT22;1032;52.542;13.440;2023-04-01T17:14:29;8.40;99.90
2054;DHT22;1032;52.542;13.440;2023-04-01T17:17:16;8.30;99.90
2054;DHT22;1032;52.542;13.440;2023-04-01T17:20:01;7.70;99.90
2054;DHT22;1032;52.542;13.440;2023-04-01T17:22:36;8.20;99.90
2054;DHT22;1032;52.542;13.440;2023-04-01T17:25:17;8.20;99.90
2054;DHT22;1032;52.542;13.440;2023-04-01T17:27:50;8.10;99.90
2054;DHT22;1032;52.542;13.440;2023-04-01T17:30:26;7.90;99.90
2054;DHT22;1032;52.542;13.440;2023-04-01T17:35:56;8.00;99.90
2054;DHT22;1032;52.542;13.440;2023-04-01T17:38:44;7.90;99.90
2054;DHT22;1032;52.542;13.440;2023-04-01T17:41:26;7.90;99.90
2054;DHT22;1032;52.542;13.440;2023-04-01T17:44:07;7.90;99.90
2054;DHT22;1032;52.542;13.440;2023-04-01T17:46:54;7.80;99.90
2054;DHT22;1032;52.542;13.440;2023-04-01T17:49:30;7.40;99.90
2054;DHT22;1032;52.542;13.440;2023-04-01T17:52:04;7.00;99.90
2054;DHT22;1032;52.542;13.440;2023-04-01T17:54:38;7.50;99.90
2054;DHT22;1032;52.542;13.440;2023-04-01T17:57:27;7.70;99.90
2054;DHT22;1032;52.542;13.440;2023-04-01T18:00:01;7.60;99.90
2054;DHT22;1032;52.542;13.440;2023-04-01T18:02:45;7.60;99.90